Time;durP1;ratioP1;P1;durP2;ratioP2;P2;SDS_P1;SDS_P2;PMS_P1;PMS_P2;Temp;Humidity;BMP_temperature;BMP_pressure;BME280_temperature;BME280_humidity;BME280_pressure;Samples;Min_cycle;Max_cycle;Signal;HPM_P1;HPM_P2
2021/06/29 00:02:26;;;;;;;3.42;2.55;;;25.60;68.40;;;;;;5311282;27;20623;-55
2021/06/29 00:05:23;;;;;;;4.25;2.45;;;25.60;68.40;;;;;;5241460;27;20554;-55
2021/06/29 00:08:25;;;;;;;4.18;2.80;;;25.60;68.40;;;;;;5254978;27;20405;-57
2021/06/29 00:11:42;;;;;;;4.75;2.75;;;25.60;68.30;;;;;;5268963;27;20518;-56
2021/06/29 00:14:44;;;;;;;3.78;2.60;;;25.60;68.30;;;;;;5245916;27;21186;-53
2021/06/29 00:17:45;;;;;;;3.53;2.90;;;25.60;68.20;;;;;;5298313;27;20404;-58
2021/06/29 00:20:51;;;;;;;6.05;2.78;;;25.60;68.90;;;;;;5260530;27;20460;-58
2021/06/29 00:23:52;;;;;;;4.20;2.65;;;25.60;68.30;;;;;;5276526;27;20218;-55
2021/06/29 00:26:53;;;;;;;5.40;2.60;;;25.50;68.30;;;;;;5264023;27;20211;-57
2021/06/29 00:29:54;;;;;;;5.53;2.90;;;25.50;68.40;;;;;;5316839;27;20531;-55
2021/06/29 00:32:55;;;;;;;3.80;2.65;;;25.50;68.40;;;;;;5317063;27;20499;-53
2021/06/29 00:35:55;;;;;;;4.07;2.67;;;25.50;68.40;;;;;;5314649;27;20505;-57
2021/06/29 00:39:07;;;;;;;4.30;2.42;;;25.50;68.30;;;;;;5266273;27;20530;-56
2021/06/29 00:42:08;;;;;;;4.20;2.67;;;25.50;68.30;;;;;;5314877;27;20396;-57
2021/06/29 00:45:10;;;;;;;3.42;2.90;;;25.50;68.30;;;;;;5318712;27;20497;-56
2021/06/29 00:48:10;;;;;;;3.88;2.63;;;25.50;68.30;;;;;;5313473;27;20505;-58
2021/06/29 00:51:18;;;;;;;6.82;2.83;;;25.50;68.30;;;;;;5249047;27;20969;-56
2021/06/29 00:54:18;;;;;;;3.53;2.60;;;25.50;68.40;;;;;;5318843;27;20710;-56
2021/06/29 00:57:18;;;;;;;4.47;2.92;;;25.50;68.40;;;;;;5304871;27;20515;-56
2021/06/29 01:00:20;;;;;;;3.47;2.70;;;25.50;68.40;;;;;;5320467;27;20977;-56
2021/06/29 01:03:40;;;;;;;2.78;2.33;;;25.50;68.50;;;;;;5272219;27;20515;-56
2021/06/29 01:06:47;;;;;;;3.50;2.42;;;25.50;68.30;;;;;;5268126;27;20580;-56
2021/06/29 01:09:48;;;;;;;2.58;2.38;;;25.50;68.30;;;;;;5320179;27;20803;-56
2021/06/29 01:12:52;;;;;;;3.40;2.60;;;25.50;68.30;;;;;;5242477;27;21676;-57
2021/06/29 01:15:56;;;;;;;2.72;2.53;;;25.50;68.30;;;;;;5317847;27;20801;-57
2021/06/29 01:19:05;;;;;;;3.95;2.80;;;25.40;68.80;;;;;;5259586;27;20512;-56
2021/06/29 01:22:11;;;;;;;3.50;2.45;;;25.40;68.20;;;;;;5267000;27;20437;-57
2021/06/29 01:25:15;;;;;;;3.65;2.83;;;25.30;68.30;;;;;;5241556;27;20951;-57
2021/06/29 01:28:27;;;;;;;3.03;2.40;;;25.20;68.40;;;;;;5241782;27;20871;-56
2021/06/29 01:31:28;;;;;;;2.70;2.13;;;25.20;68.60;;;;;;5299372;27;21609;-58
2021/06/29 01:34:30;;;;;;;2.40;2.20;;;25.10;68.70;;;;;;5312473;27;20855;-57
2021/06/29 01:37:31;;;;;;;3.35;2.40;;;25.10;68.80;;;;;;5311809;27;20501;-55
2021/06/29 01:40:31;;;;;;;5.18;2.50;;;25.10;68.90;;;;;;5313243;27;20548;-58
2021/06/29 01:43:38;;;;;;;2.67;2.47;;;25.00;69.20;;;;;;5313966;27;20392;-58
2021/06/29 01:46:52;;;;;;;3.05;2.50;;;25.00;69.30;;;;;;5245937;27;20438;-56
2021/06/29 01:49:53;;;;;;;9.18;2.67;;;24.90;69.40;;;;;;5315297;27;20416;-58
2021/06/29 01:53:07;;;;;;;5.43;2.55;;;24.90;69.70;;;;;;5268710;27;21441;-53
2021/06/29 01:56:14;;;;;;;3.50;2.20;;;24.90;69.80;;;;;;5300994;27;20412;-56
2021/06/29 01:59:19;;;;;;;4.25;2.70;;;24.80;70.00;;;;;;5317111;27;20424;-57
2021/06/29 02:02:19;;;;;;;6.65;2.42;;;24.80;70.00;;;;;;5311876;27;20408;-57
2021/06/29 02:05:19;;;;;;;4.35;2.35;;;24.80;70.00;;;;;;5272041;27;20965;-57
2021/06/29 02:08:20;;;;;;;4.25;2.90;;;24.80;70.10;;;;;;5316144;27;20753;-55
2021/06/29 02:11:21;;;;;;;2.88;2.60;;;24.70;70.30;;;;;;5343016;27;20420;-55
2021/06/29 02:14:26;;;;;;;3.83;2.50;;;24.70;70.50;;;;;;5291916;27;20547;-56
2021/06/29 02:17:39;;;;;;;3.60;2.83;;;24.70;70.70;;;;;;5278638;27;20216;-55
2021/06/29 02:20:36;;;;;;;2.88;2.20;;;24.60;71.00;;;;;;5268684;27;20556;-56
2021/06/29 02:23:37;;;;;;;4.93;2.53;;;24.60;71.30;;;;;;5343670;27;20511;-53
2021/06/29 02:26:38;;;;;;;4.80;2.67;;;24.60;71.40;;;;;;5348184;27;20424;-57
2021/06/29 02:29:40;;;;;;;4.65;2.70;;;24.60;71.40;;;;;;5345974;27;20447;-56
2021/06/29 02:32:46;;;;;;;4.20;2.55;;;24.50;71.30;;;;;;5309951;27;20492;-55
2021/06/29 02:35:48;;;;;;;3.97;2.60;;;24.50;71.50;;;;;;5349030;27;20819;-56
2021/06/29 02:38:45;;;;;;;4.95;2.63;;;24.50;71.60;;;;;;5267700;27;20441;-56
2021/06/29 02:41:46;;;;;;;3.67;2.72;;;24.50;71.60;;;;;;5346764;27;20862;-56
2021/06/29 02:45:02;;;;;;;3.45;2.60;;;24.50;71.50;;;;;;5280667;27;20530;-54
2021/06/29 02:48:02;;;;;;;3.47;2.80;;;24.50;71.40;;;;;;5257106;27;20436;-54
2021/06/29 02:51:04;;;;;;;4.15;2.63;;;24.40;71.20;;;;;;5343950;27;20439;-58
2021/06/29 02:54:18;;;;;;;3.80;2.70;;;24.40;71.30;;;;;;5298536;27;20458;-53
2021/06/29 02:57:25;;;;;;;3.08;2.72;;;24.40;71.20;;;;;;5279634;27;23780;-57
2021/06/29 03:00:26;;;;;;;2.58;2.38;;;24.40;71.20;;;;;;5345199;27;20481;-55
2021/06/29 03:03:38;;;;;;;2.53;2.20;;;24.40;71.20;;;;;;5302016;27;20426;-56
2021/06/29 03:06:42;;;;;;;4.95;2.58;;;24.40;71.30;;;;;;5269595;27;20461;-57
2021/06/29 03:09:42;;;;;;;4.60;2.40;;;24.40;71.30;;;;;;5345643;27;20510;-53
2021/06/29 03:12:43;;;;;;;3.42;2.40;;;24.30;71.50;;;;;;5346441;27;20483;-57
2021/06/29 03:15:44;;;;;;;4.10;2.40;;;24.30;71.70;;;;;;5343017;27;20420;-58
2021/06/29 03:18:40;;;;;;;4.05;2.90;;;24.30;71.80;;;;;;5269386;27;20769;-55
2021/06/29 03:21:42;;;;;;;5.70;2.60;;;24.30;71.80;;;;;;5349001;27;20841;-55
2021/06/29 03:24:45;;;;;;;3.55;2.65;;;24.30;71.90;;;;;;5270581;27;20538;-58
2021/06/29 03:27:46;;;;;;;3.10;2.78;;;24.30;72.00;;;;;;5346038;27;20495;-57
2021/06/29 03:30:47;;;;;;;5.80;2.90;;;24.30;72.00;;;;;;5349151;27;20479;-55
2021/06/29 03:33:47;;;;;;;3.20;2.30;;;24.20;72.00;;;;;;5347618;27;20428;-56
2021/06/29 03:36:50;;;;;;;3.92;2.60;;;24.20;72.00;;;;;;5263359;27;20510;-53
2021/06/29 03:39:51;;;;;;;3.63;2.90;;;24.20;72.30;;;;;;5301464;27;20155;-56
2021/06/29 03:42:52;;;;;;;2.92;2.65;;;24.20;72.60;;;;;;5305328;27;20433;-54
2021/06/29 03:46:02;;;;;;;3.05;2.70;;;24.20;72.70;;;;;;5284657;27;20508;-55
2021/06/29 03:49:03;;;;;;;6.75;2.88;;;24.20;72.70;;;;;;5345829;27;20933;-55
2021/06/29 03:52:05;;;;;;;4.32;3.15;;;24.20;72.70;;;;;;5345376;27;20504;-54
2021/06/29 03:55:07;;;;;;;4.32;2.88;;;24.20;72.50;;;;;;5348138;27;20493;-55
2021/06/29 03:58:08;;;;;;;5.53;3.00;;;24.10;72.30;;;;;;5331704;27;20925;-53
2021/06/29 04:01:09;;;;;;;3.88;2.72;;;24.10;72.90;;;;;;5348932;27;20440;-55
2021/06/29 04:04:15;;;;;;;4.00;2.55;;;24.10;72.30;;;;;;5296886;27;20494;-54
2021/06/29 04:07:27;;;;;;;3.80;2.65;;;24.10;72.50;;;;;;5269683;27;20220;-56
2021/06/29 04:10:28;;;;;;;3.13;2.75;;;24.00;72.60;;;;;;5343205;27;20429;-56
2021/06/29 04:13:34;;;;;;;3.42;2.53;;;24.00;72.80;;;;;;5285395;27;20572;-54
2021/06/29 04:16:34;;;;;;;4.72;2.70;;;24.10;72.70;;;;;;5254821;27;20221;-56
2021/06/29 04:19:31;;;;;;;2.60;2.40;;;24.10;72.60;;;;;;5267045;27;20524;-55
2021/06/29 04:22:32;;;;;;;2.78;2.47;;;24.20;72.30;;;;;;5336181;27;20493;-57
2021/06/29 04:25:33;;;;;;;2.75;2.20;;;24.20;72.00;;;;;;5339914;27;20786;-51
2021/06/29 04:28:40;;;;;;;3.60;2.35;;;24.30;71.80;;;;;;5294151;27;20453;-56
2021/06/29 04:31:37;;;;;;;2.50;2.30;;;24.40;71.60;;;;;;5268603;27;20472;-55
2021/06/29 04:34:40;;;;;;;2.53;2.15;;;24.40;71.50;;;;;;5342103;27;20426;-58
2021/06/29 04:37:38;;;;;;;4.88;2.50;;;24.50;71.40;;;;;;5249228;27;20512;-59
2021/06/29 04:40:35;;;;;;;2.58;2.30;;;24.50;71.30;;;;;;5261569;27;20435;-60
2021/06/29 04:43:39;;;;;;;2.63;2.17;;;24.50;71.20;;;;;;5339838;27;20420;-52
2021/06/29 04:46:39;;;;;;;2.67;2.35;;;24.50;71.00;;;;;;5336468;27;20495;-53
2021/06/29 04:49:39;;;;;;;2.78;2.05;;;24.60;71.00;;;;;;5337555;27;20796;-52
2021/06/29 04:52:40;;;;;;;3.92;2.58;;;24.60;70.90;;;;;;5336717;27;20511;-53
2021/06/29 04:55:37;;;;;;;8.50;2.72;;;24.60;71.00;;;;;;5264784;27;20419;-54
2021/06/29 04:58:38;;;;;;;12.18;3.10;;;24.60;70.90;;;;;;5315473;27;20525;-55
2021/06/29 05:01:47;;;;;;;10.45;2.83;;;24.60;71.00;;;;;;5260506;27;21051;-54
2021/06/29 05:04:46;;;;;;;7.03;2.70;;;24.50;70.90;;;;;;5252160;27;21052;-54
2021/06/29 05:08:03;;;;;;;8.60;2.50;;;24.50;70.80;;;;;;5259938;27;20952;-55
2021/06/29 05:11:03;;;;;;;6.43;3.50;;;24.60;70.80;;;;;;5336850;27;20499;-56
2021/06/29 05:14:03;;;;;;;8.57;2.95;;;24.60;70.90;;;;;;5318236;27;20422;-54
2021/06/29 05:17:04;;;;;;;13.35;3.28;;;24.60;71.10;;;;;;5290785;27;21359;-56
2021/06/29 05:20:06;;;;;;;7.18;3.00;;;24.70;71.20;;;;;;5286650;27;20425;-55
2021/06/29 05:23:07;;;;;;;11.18;3.60;;;24.70;70.70;;;;;;5279150;27;20788;-56
2021/06/29 05:26:13;;;;;;;6.15;2.70;;;24.80;71.10;;;;;;5204103;27;20879;-56
2021/06/29 05:29:29;;;;;;;10.30;3.10;;;24.90;70.20;;;;;;5248398;27;20862;-57
2021/06/29 05:32:31;;;;;;;9.35;2.90;;;25.00;69.90;;;;;;5281851;27;20427;-56
2021/06/29 05:35:32;;;;;;;4.38;2.25;;;25.10;69.60;;;;;;5284287;27;20501;-58
2021/06/29 05:38:32;;;;;;;7.75;2.85;;;25.10;69.60;;;;;;5200449;27;20430;-55
2021/06/29 05:41:40;;;;;;;5.88;2.78;;;25.20;69.30;;;;;;5253684;27;20572;-58
2021/06/29 05:44:36;;;;;;;9.43;2.50;;;25.30;69.20;;;;;;5238039;27;21264;-58
2021/06/29 05:47:43;;;;;;;2.97;2.55;;;25.30;68.90;;;;;;5227333;27;21039;-57
2021/06/29 05:50:45;;;;;;;3.55;2.47;;;25.30;68.60;;;;;;5282482;27;20504;-58
2021/06/29 05:53:45;;;;;;;4.57;2.55;;;25.40;68.50;;;;;;5265728;27;20932;-58
2021/06/29 05:56:45;;;;;;;6.63;2.75;;;25.40;68.20;;;;;;5326459;27;20423;-57
2021/06/29 05:59:46;;;;;;;7.55;2.55;;;25.50;68.20;;;;;;5303892;27;20997;-56
2021/06/29 06:02:55;;;;;;;3.95;2.38;;;25.50;67.90;;;;;;5220481;27;20944;-56
2021/06/29 06:05:57;;;;;;;5.65;2.35;;;25.50;67.70;;;;;;5282060;27;20508;-57
2021/06/29 06:09:09;;;;;;;3.58;2.60;;;25.50;67.50;;;;;;5277315;27;20508;-58
2021/06/29 06:12:25;;;;;;;2.80;2.53;;;25.50;67.30;;;;;;5262755;27;20421;-57
2021/06/29 06:15:41;;;;;;;3.00;2.42;;;25.60;67.30;;;;;;5233115;27;20513;-56
2021/06/29 06:18:52;;;;;;;2.75;2.13;;;25.60;67.10;;;;;;5224128;27;20557;-58
2021/06/29 06:21:53;;;;;;;2.85;1.92;;;25.70;67.10;;;;;;5323116;27;20477;-57
2021/06/29 06:24:53;;;;;;;6.15;2.53;;;25.60;67.00;;;;;;5304411;27;20510;-54
2021/06/29 06:27:59;;;;;;;4.38;2.60;;;25.60;67.00;;;;;;5272801;27;20426;-59
2021/06/29 06:31:00;;;;;;;2.30;2.10;;;25.60;67.00;;;;;;5275815;27;20731;-57
2021/06/29 06:34:00;;;;;;;3.25;2.08;;;25.70;67.00;;;;;;5313407;27;20412;-57
2021/06/29 06:37:00;;;;;;;2.63;2.05;;;25.60;67.10;;;;;;5304265;27;20525;-57
2021/06/29 06:40:02;;;;;;;4.20;2.55;;;25.60;66.90;;;;;;5337660;27;20507;-58
2021/06/29 06:43:03;;;;;;;4.35;2.40;;;25.60;66.90;;;;;;5341123;27;20440;-57
2021/06/29 06:46:04;;;;;;;3.65;2.38;;;25.60;66.90;;;;;;5326953;27;20405;-53
2021/06/29 06:49:01;;;;;;;3.33;2.30;;;25.60;67.00;;;;;;5261965;27;20502;-55
2021/06/29 06:52:05;;;;;;;4.10;2.80;;;25.70;67.00;;;;;;5259552;27;20982;-56
2021/06/29 06:55:07;;;;;;;4.57;2.83;;;25.70;67.20;;;;;;5339324;27;20486;-54
2021/06/29 06:58:08;;;;;;;2.60;2.40;;;25.70;67.30;;;;;;5334827;27;20486;-57
2021/06/29 07:01:05;;;;;;;3.72;2.67;;;25.70;67.40;;;;;;5260897;27;20940;-51
2021/06/29 07:04:11;;;;;;;4.28;2.55;;;25.70;67.60;;;;;;5340060;27;20537;-57
2021/06/29 07:07:11;;;;;;;4.63;2.75;;;25.60;67.70;;;;;;5332132;27;20504;-54
2021/06/29 07:10:23;;;;;;;4.95;2.60;;;25.60;67.90;;;;;;5291754;27;20544;-54
2021/06/29 07:13:20;;;;;;;6.38;2.65;;;25.60;68.00;;;;;;5266664;27;20844;-53
2021/06/29 07:16:22;;;;;;;2.80;2.30;;;25.60;68.10;;;;;;5336757;27;20507;-55
2021/06/29 07:19:23;;;;;;;3.10;2.33;;;25.50;68.20;;;;;;5268009;27;20503;-55
2021/06/29 07:22:06;;;;;;;3.55;2.58;;;25.50;68.30;;;;;;5196162;28;21177;-56
2021/06/29 07:24:50;;;;;;;4.15;2.30;;;25.50;68.60;;;;;;5219532;28;20431;-55
2021/06/29 07:27:33;;;;;;;3.47;2.40;;;25.40;68.70;;;;;;5261992;27;21042;-57
2021/06/29 07:30:16;;;;;;;4.88;2.50;;;25.40;68.70;;;;;;5276389;27;20553;-52
2021/06/29 07:32:59;;;;;;;4.60;1.98;;;25.40;68.70;;;;;;5194798;28;20537;-53
2021/06/29 07:35:42;;;;;;;2.93;2.20;;;25.40;68.60;;;;;;5252537;27;20530;-57
2021/06/29 07:38:25;;;;;;;2.67;2.38;;;25.80;67.70;;;;;;5209523;28;20979;-54
2021/06/29 07:41:08;;;;;;;3.42;2.30;;;25.60;67.80;;;;;;5232895;27;20882;-57
2021/06/29 07:43:54;;;;;;;3.30;2.20;;;25.60;67.90;;;;;;5182350;28;20416;-57
2021/06/29 07:46:37;;;;;;;10.30;2.22;;;25.60;67.90;;;;;;5196428;28;21067;-55
2021/06/29 07:49:20;;;;;;;3.67;2.10;;;25.60;67.80;;;;;;5236948;27;20503;-56
2021/06/29 07:52:03;;;;;;;2.58;2.38;;;25.60;67.80;;;;;;5177346;28;20512;-55
2021/06/29 07:54:46;;;;;;;2.63;1.90;;;25.60;67.90;;;;;;5227207;27;20412;-54
2021/06/29 07:57:29;;;;;;;5.55;2.00;;;25.60;67.80;;;;;;5190119;28;20528;-58
2021/06/29 08:00:13;;;;;;;2.10;1.90;;;25.60;67.90;;;;;;5234702;27;20495;-57
2021/06/29 08:02:58;;;;;;;4.20;2.13;;;25.60;67.80;;;;;;5192735;28;20495;-57
2021/06/29 08:05:43;;;;;;;2.80;2.50;;;25.60;67.80;;;;;;5252480;27;21010;-57
2021/06/29 08:08:26;;;;;;;3.08;2.30;;;25.50;68.30;;;;;;5248663;27;20417;-56
2021/06/29 08:11:09;;;;;;;3.17;2.15;;;25.60;67.80;;;;;;5255423;27;20534;-57
2021/06/29 08:13:53;;;;;;;3.53;1.98;;;25.60;67.80;;;;;;5206944;28;20901;-57
2021/06/29 08:16:36;;;;;;;2.80;2.22;;;25.60;67.90;;;;;;5193262;28;21014;-57
2021/06/29 08:19:21;;;;;;;3.72;1.85;;;25.60;67.90;;;;;;5198046;27;20414;-57
2021/06/29 08:22:05;;;;;;;2.78;2.25;;;25.50;67.90;;;;;;5190650;28;20505;-53
2021/06/29 08:24:49;;;;;;;3.47;1.90;;;25.50;67.80;;;;;;5224517;28;20989;-57
2021/06/29 08:27:33;;;;;;;2.42;1.90;;;25.50;67.80;;;;;;5237554;27;20508;-56
2021/06/29 08:30:17;;;;;;;3.42;2.00;;;25.50;67.80;;;;;;5205756;28;20663;-57
2021/06/29 08:33:01;;;;;;;3.20;2.00;;;25.50;67.80;;;;;;5205354;28;20856;-56
2021/06/29 08:35:44;;;;;;;2.30;1.70;;;25.50;67.70;;;;;;5197793;28;20511;-53
2021/06/29 08:38:27;;;;;;;3.78;1.98;;;25.50;67.80;;;;;;5232225;27;20555;-55
2021/06/29 08:41:11;;;;;;;1.70;1.60;;;25.50;67.70;;;;;;5193150;28;20425;-56
2021/06/29 08:43:55;;;;;;;2.10;1.90;;;25.50;67.50;;;;;;5189284;28;20415;-55
2021/06/29 08:46:37;;;;;;;2.78;2.25;;;25.50;67.50;;;;;;5199699;28;20668;-53
2021/06/29 08:49:20;;;;;;;2.40;1.65;;;25.60;67.40;;;;;;5213758;27;20568;-57
2021/06/29 08:52:05;;;;;;;5.40;2.30;;;25.50;67.20;;;;;;5200172;28;20509;-58
2021/06/29 08:54:49;;;;;;;2.08;1.60;;;25.60;67.20;;;;;;5221525;27;20430;-57
2021/06/29 08:57:33;;;;;;;2.05;1.92;;;25.60;67.10;;;;;;5193606;28;20540;-56
2021/06/29 09:00:16;;;;;;;2.45;1.70;;;25.60;67.10;;;;;;5211054;28;20854;-57
2021/06/29 09:02:59;;;;;;;2.60;2.00;;;25.60;67.20;;;;;;5198249;28;21010;-58
2021/06/29 09:05:45;;;;;;;2.73;1.97;;;25.60;67.10;;;;;;5231953;27;1208229;-56
2021/06/29 09:08:28;;;;;;;2.30;1.60;;;25.60;67.00;;;;;;5211746;28;20858;-54
2021/06/29 09:11:17;;;;;;;1.77;1.67;;;25.60;67.00;;;;;;5244685;27;20425;-57
2021/06/29 09:14:09;;;;;;;3.80;1.73;;;25.60;66.80;;;;;;5213255;28;20616;-57
2021/06/29 09:17:18;;;;;;;3.08;1.80;;;25.60;66.70;;;;;;5224662;27;20437;-57
2021/06/29 09:20:02;;;;;;;2.65;1.70;;;25.60;67.20;;;;;;5203972;28;20819;-57
2021/06/29 09:22:46;;;;;;;6.55;1.75;;;25.60;66.70;;;;;;5233691;27;21123;-57
2021/06/29 09:25:30;;;;;;;3.60;1.92;;;25.70;66.70;;;;;;5213234;28;21010;-57
2021/06/29 09:28:17;;;;;;;4.15;1.75;;;25.60;66.60;;;;;;5243839;27;20551;-58
2021/06/29 09:31:04;;;;;;;3.75;2.03;;;25.60;66.70;;;;;;5219641;28;20495;-56
2021/06/29 09:33:52;;;;;;;3.10;1.70;;;25.70;66.70;;;;;;5200216;28;20539;-57
2021/06/29 09:36:38;;;;;;;2.75;1.90;;;25.70;66.60;;;;;;5239583;27;20484;-55
2021/06/29 09:39:22;;;;;;;2.78;1.88;;;25.60;66.60;;;;;;5214672;28;20564;-56
2021/06/29 09:42:06;;;;;;;2.97;1.50;;;25.70;66.50;;;;;;5271958;27;20495;-58
2021/06/29 09:44:49;;;;;;;4.25;1.75;;;25.70;66.70;;;;;;5248864;27;20476;-57
2021/06/29 09:47:32;;;;;;;1.70;1.48;;;25.70;66.60;;;;;;5211948;28;20511;-57
2021/06/29 09:50:37;;;;;;;1.70;1.60;;;25.70;66.60;;;;;;5207517;28;20560;-58
2021/06/29 09:53:25;;;;;;;1.88;1.55;;;25.70;66.80;;;;;;5251669;27;20830;-57
2021/06/29 09:56:15;;;;;;;3.03;1.60;;;25.70;66.60;;;;;;5192186;28;20532;-58
2021/06/29 09:58:59;;;;;;;3.53;1.65;;;25.60;66.50;;;;;;5210838;27;20859;-57
2021/06/29 10:01:43;;;;;;;1.80;1.70;;;25.70;66.50;;;;;;5197811;28;20522;-57
2021/06/29 10:04:26;;;;;;;1.40;1.30;;;25.60;66.40;;;;;;5213761;27;20581;-57
2021/06/29 10:07:17;;;;;;;2.10;1.90;;;25.60;66.30;;;;;;5232628;27;20851;-58
2021/06/29 10:10:16;;;;;;;1.50;1.30;;;25.60;66.30;;;;;;5251734;27;20842;-57
2021/06/29 10:13:15;;;;;;;1.90;1.52;;;25.60;66.10;;;;;;5215453;27;20430;-55
2021/06/29 10:15:58;;;;;;;1.90;1.50;;;25.70;66.00;;;;;;5230284;27;20529;-57
2021/06/29 10:18:51;;;;;;;1.85;1.70;;;25.70;66.00;;;;;;5262738;27;20516;-58
2021/06/29 10:21:37;;;;;;;3.00;1.60;;;25.70;66.00;;;;;;5215792;28;21015;-58
2021/06/29 10:24:36;;;;;;;4.57;1.67;;;25.70;66.00;;;;;;5198780;28;20519;-58
2021/06/29 10:27:18;;;;;;;1.60;1.50;;;25.70;66.00;;;;;;5214438;27;20858;-55
2021/06/29 10:30:02;;;;;;;1.60;1.50;;;25.70;65.90;;;;;;5254047;27;20480;-55
2021/06/29 10:32:46;;;;;;;2.17;1.70;;;25.70;65.90;;;;;;5214754;28;20526;-57
2021/06/29 10:35:29;;;;;;;3.28;2.25;;;25.70;65.80;;;;;;5276509;27;20580;-57
2021/06/29 10:38:12;;;;;;;2.47;1.63;;;25.70;65.70;;;;;;5229528;27;20504;-57
2021/06/29 10:40:58;;;;;;;2.20;1.70;;;25.70;65.70;;;;;;5224154;28;20748;-56
2021/06/29 10:43:42;;;;;;;2.15;1.80;;;25.70;65.70;;;;;;5238685;27;20865;-55
2021/06/29 10:46:29;;;;;;;2.50;1.60;;;25.70;65.60;;;;;;5190362;28;20420;-57
2021/06/29 10:49:27;;;;;;;1.70;1.60;;;25.70;65.60;;;;;;5196404;27;20960;-57
2021/06/29 10:52:23;;;;;;;1.55;1.40;;;25.70;65.60;;;;;;5246156;27;20400;-54
2021/06/29 10:55:22;;;;;;;1.40;1.30;;;25.80;65.70;;;;;;5220397;28;20927;-57
2021/06/29 10:58:06;;;;;;;3.05;1.60;;;25.70;65.60;;;;;;5226591;27;20523;-56
2021/06/29 11:00:49;;;;;;;1.77;1.50;;;25.70;65.70;;;;;;5206447;28;20487;-57
2021/06/29 11:03:38;;;;;;;2.72;1.73;;;25.80;65.70;;;;;;5257339;27;20498;-56
2021/06/29 11:06:46;;;;;;;2.47;1.60;;;25.70;65.60;;;;;;5183889;28;20488;-53
2021/06/29 11:09:54;;;;;;;3.22;1.60;;;25.70;65.60;;;;;;5244965;27;20475;-54
2021/06/29 11:12:52;;;;;;;2.13;1.92;;;25.80;65.70;;;;;;5218468;27;20529;-53
2021/06/29 11:15:48;;;;;;;1.60;1.40;;;25.80;65.80;;;;;;5218373;27;21061;-58
2021/06/29 11:18:38;;;;;;;2.75;1.70;;;25.80;65.80;;;;;;5213778;27;20567;-56
2021/06/29 11:21:21;;;;;;;1.92;1.73;;;25.80;65.80;;;;;;5212959;28;20506;-56
2021/06/29 11:24:39;;;;;;;2.22;1.80;;;25.80;65.80;;;;;;5209119;28;21208;-55
2021/06/29 11:28:03;;;;;;;1.85;1.60;;;25.80;65.70;;;;;;5204138;27;20412;-56
2021/06/29 11:30:57;;;;;;;2.78;2.00;;;25.80;65.70;;;;;;5195790;28;20247;-53
2021/06/29 11:33:46;;;;;;;1.95;1.60;;;25.80;65.70;;;;;;5228815;27;20576;-56
2021/06/29 11:36:29;;;;;;;1.90;1.63;;;25.80;65.70;;;;;;5234886;27;20421;-55
2021/06/29 11:39:15;;;;;;;2.30;1.98;;;25.80;65.70;;;;;;5243124;27;20485;-58
2021/06/29 11:42:08;;;;;;;1.63;1.42;;;25.80;65.70;;;;;;5193574;28;20507;-53
2021/06/29 11:44:59;;;;;;;1.95;1.55;;;25.80;65.60;;;;;;5235890;27;20427;-55
2021/06/29 11:47:45;;;;;;;3.22;1.80;;;25.80;66.20;;;;;;5228615;28;20981;-57
2021/06/29 11:50:42;;;;;;;3.83;1.70;;;25.80;65.20;;;;;;5235341;28;20524;-58
2021/06/29 11:53:25;;;;;;;2.28;1.60;;;25.90;65.30;;;;;;5253783;27;21354;-58
2021/06/29 11:56:12;;;;;;;2.85;1.85;;;26.00;65.40;;;;;;5205068;28;20550;-57
2021/06/29 11:58:55;;;;;;;2.08;1.88;;;26.00;65.60;;;;;;5218488;28;20517;-58
2021/06/29 12:01:38;;;;;;;2.22;1.70;;;26.00;65.80;;;;;;5246334;27;20451;-57
2021/06/29 12:04:21;;;;;;;2.22;1.70;;;26.00;65.70;;;;;;5218075;28;20424;-58
2021/06/29 12:07:06;;;;;;;3.45;2.00;;;26.00;65.80;;;;;;5204604;28;20540;-57
2021/06/29 12:09:50;;;;;;;3.05;1.75;;;26.00;65.80;;;;;;5209031;28;20483;-57
2021/06/29 12:12:34;;;;;;;3.03;1.70;;;26.10;65.80;;;;;;5249858;27;20488;-57
2021/06/29 12:15:42;;;;;;;3.92;1.73;;;26.10;65.80;;;;;;5266504;27;20498;-56
2021/06/29 12:18:28;;;;;;;1.98;1.75;;;26.10;65.80;;;;;;5247320;27;20603;-59
2021/06/29 12:21:15;;;;;;;4.15;1.73;;;26.10;65.80;;;;;;5184975;27;21284;-58
2021/06/29 12:23:59;;;;;;;1.70;1.60;;;26.10;65.70;;;;;;5238707;27;20497;-58
2021/06/29 12:26:43;;;;;;;2.38;1.80;;;26.20;65.80;;;;;;5235962;27;20844;-58
2021/06/29 12:29:37;;;;;;;2.05;1.80;;;26.20;65.70;;;;;;5177842;28;20536;-57
2021/06/29 12:32:24;;;;;;;3.45;1.60;;;26.30;65.70;;;;;;5202002;27;20418;-58
2021/06/29 12:35:10;;;;;;;2.85;1.50;;;26.30;65.50;;;;;;5151212;28;20496;-59
2021/06/29 12:37:56;;;;;;;9.27;1.77;;;26.40;65.60;;;;;;5227667;27;21003;-56
2021/06/29 12:40:39;;;;;;;7.57;1.80;;;26.50;65.50;;;;;;5212626;27;20410;-58
2021/06/29 12:43:48;;;;;;;6.15;2.00;;;26.50;65.30;;;;;;5198872;28;20542;-56
2021/06/29 12:46:33;;;;;;;2.92;1.70;;;26.50;65.00;;;;;;5119037;28;20502;-57
2021/06/29 12:49:19;;;;;;;4.43;2.00;;;26.60;64.90;;;;;;5198667;28;20954;-56
2021/06/29 12:52:14;;;;;;;7.57;2.03;;;26.60;64.90;;;;;;5256056;27;20860;-58
2021/06/29 12:55:06;;;;;;;4.10;1.90;;;26.60;64.90;;;;;;5246142;27;20500;-56
2021/06/29 12:58:10;;;;;;;2.10;1.67;;;26.70;65.00;;;;;;5246370;27;20165;-56
2021/06/29 13:00:54;;;;;;;4.60;1.98;;;26.70;65.00;;;;;;5281337;27;20148;-56
2021/06/29 13:03:40;;;;;;;3.85;1.60;;;26.70;65.00;;;;;;5244888;27;20477;-58
2021/06/29 13:06:24;;;;;;;2.60;1.70;;;26.70;65.10;;;;;;5236024;27;20489;-56
2021/06/29 13:09:12;;;;;;;3.58;1.95;;;26.70;65.20;;;;;;5202709;28;20507;-56
2021/06/29 13:11:59;;;;;;;5.25;1.73;;;26.70;65.20;;;;;;5224682;28;20494;-57
2021/06/29 13:14:55;;;;;;;2.35;1.95;;;26.70;65.20;;;;;;5201546;28;20880;-58
2021/06/29 13:18:04;;;;;;;5.90;1.50;;;26.70;65.20;;;;;;5248840;27;21134;-57
2021/06/29 13:20:49;;;;;;;3.05;1.90;;;26.60;65.20;;;;;;5222707;27;20476;-58
2021/06/29 13:23:35;;;;;;;2.28;1.70;;;26.70;65.40;;;;;;5226515;28;20441;-58
2021/06/29 13:26:18;;;;;;;4.68;1.90;;;26.70;66.00;;;;;;5203710;28;20504;-58
2021/06/29 13:29:02;;;;;;;5.65;1.42;;;26.70;65.50;;;;;;5207642;28;20554;-55
2021/06/29 13:31:46;;;;;;;5.57;1.90;;;26.60;65.40;;;;;;5250400;27;21043;-52
2021/06/29 13:34:33;;;;;;;6.72;1.73;;;26.60;65.50;;;;;;5210932;28;20515;-58
2021/06/29 13:37:24;;;;;;;7.38;1.60;;;26.60;65.60;;;;;;5242256;27;20416;-57
2021/06/29 13:40:26;;;;;;;5.38;1.67;;;26.60;65.60;;;;;;5222017;28;20218;-55
2021/06/29 13:43:12;;;;;;;2.70;1.70;;;26.60;65.70;;;;;;5211413;28;20443;-54
2021/06/29 13:45:57;;;;;;;4.00;1.58;;;26.60;65.70;;;;;;5249457;27;20850;-55
2021/06/29 13:49:18;;;;;;;2.10;1.50;;;26.60;65.70;;;;;;5217933;28;20466;-56
2021/06/29 13:52:11;;;;;;;2.63;1.77;;;26.60;65.80;;;;;;5192614;28;20955;-56
2021/06/29 13:55:05;;;;;;;3.13;2.22;;;26.60;65.90;;;;;;5322982;27;20559;-55
2021/06/29 13:57:48;;;;;;;5.82;1.90;;;26.50;65.90;;;;;;5187499;28;20648;-57
2021/06/29 14:00:31;;;;;;;7.32;1.83;;;26.50;66.10;;;;;;5236483;27;20500;-59
2021/06/29 14:03:25;;;;;;;7.53;1.63;;;26.50;66.10;;;;;;5265674;27;20414;-56
2021/06/29 14:06:13;;;;;;;10.10;1.92;;;26.40;66.20;;;;;;5228466;28;20923;-52
2021/06/29 14:09:10;;;;;;;10.27;1.90;;;26.40;66.30;;;;;;5196701;28;20495;-58
2021/06/29 14:11:53;;;;;;;11.35;2.00;;;26.40;66.40;;;;;;5214582;28;20455;-52
2021/06/29 14:14:36;;;;;;;18.35;3.05;;;26.40;66.60;;;;;;5199688;28;20509;-57
2021/06/29 14:17:19;;;;;;;9.55;2.40;;;26.40;66.60;;;;;;5223958;27;20898;-51
2021/06/29 14:20:04;;;;;;;13.65;2.47;;;26.40;66.70;;;;;;5194948;28;20979;-55
2021/06/29 14:22:48;;;;;;;9.10;2.15;;;26.30;66.70;;;;;;5220458;27;20489;-54
2021/06/29 14:25:31;;;;;;;6.63;2.15;;;26.30;66.90;;;;;;5240321;27;20492;-56
2021/06/29 14:28:14;;;;;;;11.85;2.38;;;26.30;66.80;;;;;;5178249;28;20530;-54
2021/06/29 14:30:57;;;;;;;11.15;2.20;;;26.30;66.90;;;;;;5210217;27;20413;-56
2021/06/29 14:33:41;;;;;;;12.52;2.38;;;26.30;66.90;;;;;;5181479;28;20539;-54
2021/06/29 14:36:25;;;;;;;9.63;2.05;;;26.30;67.00;;;;;;5204859;28;20479;-51
2021/06/29 14:39:08;;;;;;;17.42;3.08;;;26.30;67.20;;;;;;5163398;28;20513;-55
2021/06/29 14:41:51;;;;;;;22.80;2.90;;;26.30;67.30;;;;;;5206146;27;20432;-55
2021/06/29 14:44:34;;;;;;;8.13;2.70;;;26.20;67.20;;;;;;5185609;28;20528;-55
2021/06/29 14:47:17;;;;;;;15.70;3.15;;;26.20;67.30;;;;;;5177395;27;20623;-58
2021/06/29 14:50:04;;;;;;;11.70;3.28;;;26.20;67.30;;;;;;5208288;27;20497;-54
2021/06/29 14:52:48;;;;;;;12.70;2.88;;;26.10;67.20;;;;;;5184871;28;20535;-55
2021/06/29 14:55:32;;;;;;;10.45;2.92;;;26.10;67.20;;;;;;5187802;28;20491;-57
2021/06/29 14:58:17;;;;;;;10.77;2.75;;;26.10;67.10;;;;;;5271046;27;20526;-55
2021/06/29 15:01:00;;;;;;;17.25;3.13;;;26.10;67.20;;;;;;5222851;27;20481;-58
2021/06/29 15:03:43;;;;;;;9.52;2.42;;;26.10;67.20;;;;;;5235113;27;20701;-57
2021/06/29 15:06:26;;;;;;;6.38;2.90;;;26.10;67.30;;;;;;5219886;28;20711;-57
2021/06/29 15:09:09;;;;;;;10.77;3.03;;;26.10;67.40;;;;;;5195649;28;20517;-56